Create Custom Reports and Graphics: Custom Report

Soquel - CalFire

Current Conditions

8/10/20 7:45 AM (-07:00)
Updated Every 15 Minutes
Temp 61.8 °F   1.4
RH 66 %   12
Dew Pt 50.4 °F   3.9
Wind Spd 0.1 mph
Wind Dir E | 95 °
Wind Gust 1.1 mph   0.1
Latest Rain 0.00 In
Daily Rain 0.00 In
Leaf Wet 0.0 mins
Daily Min Temp 59.9 °F   0.5
Daily Max Temp 62.1 °F   1.7

Daily Summary

Last 30 Days

Daily Data | America/Los_Angeles
as of 8/10/20 7:55 AM PDT
Date Daily Max Temp (°F) Daily Min Temp (°F) Daily Rain (In) Seasonal Rainfall (In) Daily Solar Rad (Cal/cm2) Daily ETo (in) Wind Spd (mph) Daily Max Wind (mph) Max Wind Dir (°) Dew Pt (°F) Max RH (%) Min RH (%) Daily Leaf Wet Hrs (hrs) Soil Temp (°F) Soil Moist (%) Fuel Moisture (%) Max Fuel Moisture (%) Min Fuel Moisture (%) Bat Volt Min Day (V)
8/9/20 82.7 59.2 0.00 0.01 643 0.196 1.0 7.3 WSW | 258 50.0 80 28 0.0 74.1 12.7 8 16 0 12.5
8/8/20 79.0 48.5 0.00 0.01 642 0.190 1.0 7.6 WSW | 246 52.9 94 45 9.6 74.1 12.7 12 23 0 12.5
8/7/20 76.1 50.0 0.00 0.01 648 0.187 1.3 7.9 SW | 224 52.7 95 48 11.3 74.1 12.7 12 21 0 12.5
8/6/20 76.4 54.1 0.01 0.01 480 0.138 1.0 7.3 WSW | 258 54.3 94 49 13.0 74.1 12.8 14 24 0 12.5
8/5/20 73.7 53.8 0.00 0.00 626 0.180 1.7 10.0 SW | 230 52.4 94 48 1.8 74.0 12.8 11 19 0 12.5
8/4/20 78.8 50.8 0.00 0.00 662 0.195 1.2 8.3 WNW | 290 53.5 93 47 11.6 73.9 12.8 10 20 0 12.5
8/3/20 92.0 56.0 0.00 0.00 655 0.207 1.4 11.4 SW | 223 49.2 87 23 1.4 73.8 12.8 6 13 0 12.5
8/2/20 88.6 59.6 0.00 0.00 670 0.209 1.3 6.8 WSW | 241 49.7 71 29 0.0 73.7 12.8 7 14 0 12.5
8/1/20 88.8 56.3 0.00 0.00 657 0.203 1.3 6.8 SSW | 212 50.3 78 31 0.0 73.6 12.8 8 14 0 12.5
7/31/20 87.0 49.3 0.00 0.00 677 0.207 1.1 6.4 WSW | 246 52.0 93 33 8.8 73.6 12.8 11 24 0 12.5
7/30/20 84.1 49.8 0.00 0.00 678 0.205 1.0 6.0 N | 349 54.2 95 41 12.1 73.5 12.9 11 22 0 12.5
7/29/20 79.8 51.8 0.00 0.00 676 0.204 1.0 6.4 WSW | 250 53.8 92 47 9.1 73.4 12.9 11 21 0 12.5
7/28/20 82.0 49.7 0.00 0.00 681 0.205 1.0 6.7 WNW | 287 53.6 94 42 11.8 73.3 12.9 11 23 0 12.5
7/27/20 80.8 50.4 0.00 0.00 680 0.203 1.1 6.6 WSW | 239 50.9 93 42 5.5 73.3 12.9 9 18 0 12.5
7/26/20 79.7 47.3 0.00 0.00 680 0.201 1.1 7.4 WSW | 255 50.9 94 40 10.4 73.2 12.9 11 22 0 12.5
7/25/20 77.2 48.0 0.00 0.00 706 0.203 1.0 7.7 NW | 315 51.5 95 45 12.4 73.2 12.9 12 23 0 12.5
7/24/20 77.9 48.0 0.00 0.00 693 0.201 1.0 7.1 W | 268 52.4 95 47 11.6 73.2 12.9 11 22 0 12.5
7/23/20 73.8 49.3 0.00 0.00 622 0.176 1.3 7.5 WSW | 254 51.8 94 52 9.3 73.1 13.0 13 21 0 12.5
7/22/20 72.5 48.0 0.00 0.00 607 0.171 1.2 7.6 SW | 220 51.8 95 54 11.4 73.1 13.0 14 23 0 12.5
7/21/20 78.1 47.1 0.00 0.00 650 0.188 1.1 7.6 WSW | 252 51.9 95 48 12.8 73.0 12.9 13 25 0 12.5
7/20/20 77.9 49.6 0.00 0.00 729 0.212 1.2 7.0 SW | 229 52.8 94 47 7.1 72.9 13.0 10 19 0 12.5
7/19/20 75.9 49.4 0.00 0.00 710 0.205 1.1 7.2 W | 275 52.6 95 49 11.6 72.8 13.0 11 20 0 12.5
7/18/20 77.9 48.3 0.00 0.00 708 0.208 1.0 7.1 SW | 234 52.3 94 47 13.0 72.7 13.0 11 22 0 12.5
7/17/20 78.5 48.7 0.00 0.00 713 0.208 1.1 6.9 NNW | 327 51.6 94 38 12.2 72.7 13.0 11 21 0 12.5
7/16/20 77.3 47.7 0.00 0.00 703 0.204 1.0 7.2 W | 266 51.1 94 36 11.9 72.6 13.0 11 22 0 12.6
7/15/20 72.2 50.7 0.00 0.00 640 0.177 1.3 6.9 WNW | 284 51.9 94 54 8.6 72.4 13.1 12 21 0 12.5
7/14/20 70.4 49.6 0.00 0.00 667 0.183 1.4 7.6 WSW | 245 50.7 94 54 4.5 72.2 13.1 11 18 0 12.5
7/13/20 75.2 50.6 0.00 0.00 726 0.210 1.3 8.1 NW | 310 51.3 94 49 4.4 72.0 13.1 7 15 0 12.5
7/12/20 92.1 64.8 0.00 0.00 740 0.238 1.3 5.9 NNW | 334 48.6 62 24 0.0 71.7 13.2 5 10 0 12.5
7/11/20 94.8 63.9 0.00 0.00 727 0.232 1.5 8.2 SSW | 213 46.5 57 14 0.0 71.5 13.2 5 11 0 12.5
Max 94.8 64.8 0.01 - 740 0.238 1.7 11.4 - 54.3 95 54 13.0 74.1 13.2 14 25 0 12.6
Avg - - - - - - 1.2 - - 51.6 - - - 73.2 12.9 10 20 0 -
Min 70.4 47.1 0.00 - 480 0.138 1.0 5.9 - 46.5 57 14 0.0 71.5 12.7 5 10 0 12.5